sensor_id;sensor_type;location;lat;lon;timestamp;P1;durP1;ratioP1;P2;durP2;ratioP2
52540;SDS011;56003;48.556;9.370;2022-07-21T00:01:36;42.57;;;38.37;;
52540;SDS011;56003;48.556;9.370;2022-07-21T00:04:02;42.50;;;38.17;;
52540;SDS011;56003;48.556;9.370;2022-07-21T00:06:27;40.20;;;36.70;;
52540;SDS011;56003;48.556;9.370;2022-07-21T00:08:53;38.33;;;34.67;;
52540;SDS011;56003;48.556;9.370;2022-07-21T00:11:18;38.53;;;35.00;;
52540;SDS011;56003;48.556;9.370;2022-07-21T00:13:43;39.30;;;35.70;;
52540;SDS011;56003;48.556;9.370;2022-07-21T00:16:09;41.80;;;37.77;;
52540;SDS011;56003;48.556;9.370;2022-07-21T00:18:34;41.10;;;37.40;;
52540;SDS011;56003;48.556;9.370;2022-07-21T00:21:00;44.40;;;39.90;;
52540;SDS011;56003;48.556;9.370;2022-07-21T00:23:25;42.10;;;38.10;;
52540;SDS011;56003;48.556;9.370;2022-07-21T00:25:52;41.73;;;37.97;;
52540;SDS011;56003;48.556;9.370;2022-07-21T00:28:18;42.47;;;38.27;;
52540;SDS011;56003;48.556;9.370;2022-07-21T00:30:44;42.60;;;38.70;;
52540;SDS011;56003;48.556;9.370;2022-07-21T00:33:10;37.57;;;34.20;;
52540;SDS011;56003;48.556;9.370;2022-07-21T00:35:35;41.03;;;37.03;;
52540;SDS011;56003;48.556;9.370;2022-07-21T00:38:01;36.53;;;33.43;;
52540;SDS011;56003;48.556;9.370;2022-07-21T00:40:26;32.90;;;29.60;;
52540;SDS011;56003;48.556;9.370;2022-07-21T00:42:52;33.93;;;30.73;;
52540;SDS011;56003;48.556;9.370;2022-07-21T00:45:17;33.83;;;30.80;;
52540;SDS011;56003;48.556;9.370;2022-07-21T00:47:43;33.83;;;30.60;;
52540;SDS011;56003;48.556;9.370;2022-07-21T00:50:10;30.77;;;27.73;;
52540;SDS011;56003;48.556;9.370;2022-07-21T00:52:38;29.00;;;26.00;;
52540;SDS011;56003;48.556;9.370;2022-07-21T00:55:04;31.03;;;28.27;;
52540;SDS011;56003;48.556;9.370;2022-07-21T00:57:31;27.30;;;24.80;;
52540;SDS011;56003;48.556;9.370;2022-07-21T00:59:57;26.50;;;24.03;;
52540;SDS011;56003;48.556;9.370;2022-07-21T01:02:22;28.43;;;26.03;;
52540;SDS011;56003;48.556;9.370;2022-07-21T01:04:48;27.40;;;24.77;;
52540;SDS011;56003;48.556;9.370;2022-07-21T01:07:13;27.63;;;25.33;;
52540;SDS011;56003;48.556;9.370;2022-07-21T01:09:41;24.50;;;22.20;;
52540;SDS011;56003;48.556;9.370;2022-07-21T01:12:06;25.97;;;23.57;;
52540;SDS011;56003;48.556;9.370;2022-07-21T01:14:32;23.77;;;21.73;;
52540;SDS011;56003;48.556;9.370;2022-07-21T01:16:58;25.50;;;22.97;;
52540;SDS011;56003;48.556;9.370;2022-07-21T01:19:25;25.67;;;23.37;;
52540;SDS011;56003;48.556;9.370;2022-07-21T01:21:50;25.87;;;23.27;;
52540;SDS011;56003;48.556;9.370;2022-07-21T01:24:17;25.30;;;22.80;;
52540;SDS011;56003;48.556;9.370;2022-07-21T01:26:44;25.27;;;22.70;;
52540;SDS011;56003;48.556;9.370;2022-07-21T01:29:13;24.80;;;22.63;;
52540;SDS011;56003;48.556;9.370;2022-07-21T01:31:40;22.83;;;20.77;;
52540;SDS011;56003;48.556;9.370;2022-07-21T01:34:07;24.03;;;21.83;;
52540;SDS011;56003;48.556;9.370;2022-07-21T01:36:33;26.03;;;23.90;;
52540;SDS011;56003;48.556;9.370;2022-07-21T01:38:58;27.97;;;25.07;;
52540;SDS011;56003;48.556;9.370;2022-07-21T01:41:42;26.97;;;24.50;;
52540;SDS011;56003;48.556;9.370;2022-07-21T01:44:08;26.60;;;24.30;;
52540;SDS011;56003;48.556;9.370;2022-07-21T01:46:36;28.23;;;25.73;;
52540;SDS011;56003;48.556;9.370;2022-07-21T01:49:11;28.40;;;25.50;;
52540;SDS011;56003;48.556;9.370;2022-07-21T01:51:37;26.23;;;23.80;;
52540;SDS011;56003;48.556;9.370;2022-07-21T01:54:03;24.63;;;22.50;;
52540;SDS011;56003;48.556;9.370;2022-07-21T01:56:29;26.43;;;24.03;;
52540;SDS011;56003;48.556;9.370;2022-07-21T01:58:55;23.97;;;21.90;;
52540;SDS011;56003;48.556;9.370;2022-07-21T02:01:22;23.37;;;21.27;;
52540;SDS011;56003;48.556;9.370;2022-07-21T02:03:51;23.63;;;21.40;;
52540;SDS011;56003;48.556;9.370;2022-07-21T02:06:17;22.97;;;19.57;;
52540;SDS011;56003;48.556;9.370;2022-07-21T02:08:42;23.43;;;19.20;;
52540;SDS011;56003;48.556;9.370;2022-07-21T02:11:08;20.43;;;18.63;;
52540;SDS011;56003;48.556;9.370;2022-07-21T02:13:34;19.90;;;17.93;;
52540;SDS011;56003;48.556;9.370;2022-07-21T02:16:00;19.73;;;17.77;;
52540;SDS011;56003;48.556;9.370;2022-07-21T02:18:26;19.07;;;17.40;;
52540;SDS011;56003;48.556;9.370;2022-07-21T02:20:51;20.03;;;18.17;;
52540;SDS011;56003;48.556;9.370;2022-07-21T02:23:17;20.23;;;17.50;;
52540;SDS011;56003;48.556;9.370;2022-07-21T02:25:43;18.70;;;17.00;;
52540;SDS011;56003;48.556;9.370;2022-07-21T02:28:09;20.50;;;18.50;;
52540;SDS011;56003;48.556;9.370;2022-07-21T02:30:35;21.70;;;19.50;;
52540;SDS011;56003;48.556;9.370;2022-07-21T02:33:00;18.07;;;16.27;;
52540;SDS011;56003;48.556;9.370;2022-07-21T02:35:25;17.00;;;15.50;;
52540;SDS011;56003;48.556;9.370;2022-07-21T02:37:51;16.87;;;15.10;;
52540;SDS011;56003;48.556;9.370;2022-07-21T02:40:16;15.57;;;14.17;;
52540;SDS011;56003;48.556;9.370;2022-07-21T02:42:42;17.77;;;16.27;;
52540;SDS011;56003;48.556;9.370;2022-07-21T02:45:08;17.77;;;16.03;;
52540;SDS011;56003;48.556;9.370;2022-07-21T02:47:47;16.70;;;15.20;;
52540;SDS011;56003;48.556;9.370;2022-07-21T02:50:21;18.23;;;15.10;;
52540;SDS011;56003;48.556;9.370;2022-07-21T02:52:48;18.20;;;16.73;;
52540;SDS011;56003;48.556;9.370;2022-07-21T02:55:14;18.33;;;16.70;;
52540;SDS011;56003;48.556;9.370;2022-07-21T02:57:40;19.90;;;17.90;;
52540;SDS011;56003;48.556;9.370;2022-07-21T03:00:07;18.53;;;16.97;;
52540;SDS011;56003;48.556;9.370;2022-07-21T03:02:33;16.83;;;15.33;;
52540;SDS011;56003;48.556;9.370;2022-07-21T03:04:59;18.13;;;16.57;;
52540;SDS011;56003;48.556;9.370;2022-07-21T03:07:24;19.37;;;17.50;;
52540;SDS011;56003;48.556;9.370;2022-07-21T03:09:50;17.33;;;15.70;;
52540;SDS011;56003;48.556;9.370;2022-07-21T03:12:15;17.03;;;15.53;;
52540;SDS011;56003;48.556;9.370;2022-07-21T03:14:40;16.93;;;15.43;;
52540;SDS011;56003;48.556;9.370;2022-07-21T03:17:06;16.13;;;14.90;;
52540;SDS011;56003;48.556;9.370;2022-07-21T03:19:31;16.20;;;14.77;;
52540;SDS011;56003;48.556;9.370;2022-07-21T03:21:56;16.17;;;14.67;;
52540;SDS011;56003;48.556;9.370;2022-07-21T03:24:22;15.27;;;13.83;;
52540;SDS011;56003;48.556;9.370;2022-07-21T03:26:47;15.37;;;14.07;;
52540;SDS011;56003;48.556;9.370;2022-07-21T03:29:12;15.50;;;14.17;;
52540;SDS011;56003;48.556;9.370;2022-07-21T03:31:37;18.73;;;17.07;;
52540;SDS011;56003;48.556;9.370;2022-07-21T03:34:03;18.33;;;16.60;;
52540;SDS011;56003;48.556;9.370;2022-07-21T03:36:28;18.10;;;16.50;;
52540;SDS011;56003;48.556;9.370;2022-07-21T03:38:54;18.30;;;16.70;;
52540;SDS011;56003;48.556;9.370;2022-07-21T03:41:19;19.13;;;17.40;;
52540;SDS011;56003;48.556;9.370;2022-07-21T03:43:44;17.80;;;16.07;;
52540;SDS011;56003;48.556;9.370;2022-07-21T03:46:10;16.83;;;15.17;;
52540;SDS011;56003;48.556;9.370;2022-07-21T03:48:35;14.17;;;13.07;;
52540;SDS011;56003;48.556;9.370;2022-07-21T03:51:00;15.23;;;13.93;;
52540;SDS011;56003;48.556;9.370;2022-07-21T03:53:26;13.27;;;12.27;;
52540;SDS011;56003;48.556;9.370;2022-07-21T03:55:51;14.37;;;13.07;;
52540;SDS011;56003;48.556;9.370;2022-07-21T03:58:16;13.03;;;11.87;;
52540;SDS011;56003;48.556;9.370;2022-07-21T04:00:42;17.97;;;13.23;;
52540;SDS011;56003;48.556;9.370;2022-07-21T04:03:09;14.40;;;12.87;;
52540;SDS011;56003;48.556;9.370;2022-07-21T04:05:35;15.40;;;14.00;;
52540;SDS011;56003;48.556;9.370;2022-07-21T04:08:01;14.27;;;12.93;;
52540;SDS011;56003;48.556;9.370;2022-07-21T04:10:28;14.87;;;13.57;;
52540;SDS011;56003;48.556;9.370;2022-07-21T04:12:55;16.17;;;14.67;;
52540;SDS011;56003;48.556;9.370;2022-07-21T04:15:22;14.63;;;13.33;;
52540;SDS011;56003;48.556;9.370;2022-07-21T04:17:48;16.33;;;14.73;;
52540;SDS011;56003;48.556;9.370;2022-07-21T04:20:14;17.23;;;15.43;;
52540;SDS011;56003;48.556;9.370;2022-07-21T04:22:40;15.20;;;13.53;;
52540;SDS011;56003;48.556;9.370;2022-07-21T04:25:06;15.10;;;13.80;;
52540;SDS011;56003;48.556;9.370;2022-07-21T04:27:32;15.77;;;14.37;;
52540;SDS011;56003;48.556;9.370;2022-07-21T04:29:59;16.77;;;15.17;;
52540;SDS011;56003;48.556;9.370;2022-07-21T04:32:24;15.67;;;14.17;;
52540;SDS011;56003;48.556;9.370;2022-07-21T04:34:50;13.67;;;12.47;;
52540;SDS011;56003;48.556;9.370;2022-07-21T04:37:15;15.73;;;14.17;;
52540;SDS011;56003;48.556;9.370;2022-07-21T04:39:41;15.63;;;14.13;;
52540;SDS011;56003;48.556;9.370;2022-07-21T04:42:06;15.00;;;13.67;;
52540;SDS011;56003;48.556;9.370;2022-07-21T04:44:31;16.37;;;14.97;;
52540;SDS011;56003;48.556;9.370;2022-07-21T04:46:57;16.20;;;14.60;;
52540;SDS011;56003;48.556;9.370;2022-07-21T04:49:22;16.53;;;15.07;;
52540;SDS011;56003;48.556;9.370;2022-07-21T04:51:48;15.90;;;14.50;;
52540;SDS011;56003;48.556;9.370;2022-07-21T04:54:13;16.57;;;14.73;;
52540;SDS011;56003;48.556;9.370;2022-07-21T04:56:39;15.63;;;14.33;;
52540;SDS011;56003;48.556;9.370;2022-07-21T04:59:08;15.40;;;13.80;;
52540;SDS011;56003;48.556;9.370;2022-07-21T05:01:34;14.97;;;13.57;;
52540;SDS011;56003;48.556;9.370;2022-07-21T05:04:00;18.43;;;15.30;;
52540;SDS011;56003;48.556;9.370;2022-07-21T05:06:25;15.23;;;13.83;;
52540;SDS011;56003;48.556;9.370;2022-07-21T05:08:50;16.23;;;14.60;;
52540;SDS011;56003;48.556;9.370;2022-07-21T05:11:16;16.30;;;14.73;;
52540;SDS011;56003;48.556;9.370;2022-07-21T05:13:41;16.60;;;15.20;;
52540;SDS011;56003;48.556;9.370;2022-07-21T05:16:07;16.83;;;15.43;;
52540;SDS011;56003;48.556;9.370;2022-07-21T05:18:32;17.87;;;16.17;;
52540;SDS011;56003;48.556;9.370;2022-07-21T05:20:58;16.80;;;15.20;;
52540;SDS011;56003;48.556;9.370;2022-07-21T05:23:23;16.60;;;15.10;;
52540;SDS011;56003;48.556;9.370;2022-07-21T05:25:48;16.47;;;15.07;;
52540;SDS011;56003;48.556;9.370;2022-07-21T05:28:14;16.50;;;15.10;;
52540;SDS011;56003;48.556;9.370;2022-07-21T05:30:39;18.10;;;16.13;;
52540;SDS011;56003;48.556;9.370;2022-07-21T05:33:04;16.97;;;15.23;;
52540;SDS011;56003;48.556;9.370;2022-07-21T05:35:29;16.33;;;14.83;;
52540;SDS011;56003;48.556;9.370;2022-07-21T05:37:55;14.50;;;13.17;;
52540;SDS011;56003;48.556;9.370;2022-07-21T05:40:21;16.00;;;14.40;;
52540;SDS011;56003;48.556;9.370;2022-07-21T05:42:46;16.37;;;14.97;;
52540;SDS011;56003;48.556;9.370;2022-07-21T05:45:12;15.67;;;14.00;;
52540;SDS011;56003;48.556;9.370;2022-07-21T05:47:43;15.33;;;13.93;;
52540;SDS011;56003;48.556;9.370;2022-07-21T05:50:09;15.23;;;13.87;;
52540;SDS011;56003;48.556;9.370;2022-07-21T05:52:34;14.63;;;13.47;;
52540;SDS011;56003;48.556;9.370;2022-07-21T05:55:00;13.20;;;12.00;;
52540;SDS011;56003;48.556;9.370;2022-07-21T05:57:25;13.07;;;11.93;;
52540;SDS011;56003;48.556;9.370;2022-07-21T05:59:51;13.63;;;12.53;;
52540;SDS011;56003;48.556;9.370;2022-07-21T06:02:16;13.90;;;11.97;;
52540;SDS011;56003;48.556;9.370;2022-07-21T06:04:42;15.37;;;12.03;;
52540;SDS011;56003;48.556;9.370;2022-07-21T06:07:07;16.40;;;11.73;;
52540;SDS011;56003;48.556;9.370;2022-07-21T06:09:32;13.30;;;12.20;;
52540;SDS011;56003;48.556;9.370;2022-07-21T06:11:57;14.93;;;13.67;;
52540;SDS011;56003;48.556;9.370;2022-07-21T06:14:23;13.53;;;12.40;;
52540;SDS011;56003;48.556;9.370;2022-07-21T06:16:48;14.77;;;13.40;;
52540;SDS011;56003;48.556;9.370;2022-07-21T06:19:14;13.53;;;12.43;;
52540;SDS011;56003;48.556;9.370;2022-07-21T06:21:39;14.23;;;13.00;;
52540;SDS011;56003;48.556;9.370;2022-07-21T06:24:06;14.20;;;12.93;;
52540;SDS011;56003;48.556;9.370;2022-07-21T06:26:31;13.27;;;12.27;;
52540;SDS011;56003;48.556;9.370;2022-07-21T06:28:57;13.43;;;12.23;;
52540;SDS011;56003;48.556;9.370;2022-07-21T06:31:22;15.00;;;13.50;;
52540;SDS011;56003;48.556;9.370;2022-07-21T06:33:47;14.07;;;12.77;;
52540;SDS011;56003;48.556;9.370;2022-07-21T06:36:13;12.87;;;11.73;;
52540;SDS011;56003;48.556;9.370;2022-07-21T06:38:38;13.47;;;12.20;;
52540;SDS011;56003;48.556;9.370;2022-07-21T06:41:03;13.37;;;12.33;;
52540;SDS011;56003;48.556;9.370;2022-07-21T06:43:29;13.67;;;12.43;;
52540;SDS011;56003;48.556;9.370;2022-07-21T06:45:54;13.03;;;11.93;;
52540;SDS011;56003;48.556;9.370;2022-07-21T06:48:20;12.70;;;11.50;;
52540;SDS011;56003;48.556;9.370;2022-07-21T06:50:47;12.87;;;11.83;;
52540;SDS011;56003;48.556;9.370;2022-07-21T06:53:12;13.27;;;11.90;;
52540;SDS011;56003;48.556;9.370;2022-07-21T06:55:38;13.40;;;12.20;;
52540;SDS011;56003;48.556;9.370;2022-07-21T06:58:10;12.00;;;10.90;;
52540;SDS011;56003;48.556;9.370;2022-07-21T07:00:37;12.43;;;11.23;;
52540;SDS011;56003;48.556;9.370;2022-07-21T07:03:03;13.20;;;11.93;;
52540;SDS011;56003;48.556;9.370;2022-07-21T07:05:29;12.90;;;11.73;;
52540;SDS011;56003;48.556;9.370;2022-07-21T07:07:55;13.87;;;12.43;;
52540;SDS011;56003;48.556;9.370;2022-07-21T07:10:21;12.90;;;11.80;;
52540;SDS011;56003;48.556;9.370;2022-07-21T07:12:46;12.00;;;10.83;;
52540;SDS011;56003;48.556;9.370;2022-07-21T07:15:12;13.27;;;11.87;;
52540;SDS011;56003;48.556;9.370;2022-07-21T07:17:37;13.07;;;11.97;;
52540;SDS011;56003;48.556;9.370;2022-07-21T07:20:03;13.60;;;12.43;;
52540;SDS011;56003;48.556;9.370;2022-07-21T07:22:31;13.43;;;11.03;;
52540;SDS011;56003;48.556;9.370;2022-07-21T07:24:57;12.70;;;11.70;;
52540;SDS011;56003;48.556;9.370;2022-07-21T07:27:22;11.07;;;10.03;;
52540;SDS011;56003;48.556;9.370;2022-07-21T07:29:47;12.57;;;11.47;;
52540;SDS011;56003;48.556;9.370;2022-07-21T07:32:13;11.57;;;10.60;;
52540;SDS011;56003;48.556;9.370;2022-07-21T07:34:38;12.60;;;11.47;;
52540;SDS011;56003;48.556;9.370;2022-07-21T07:37:03;12.67;;;11.60;;
52540;SDS011;56003;48.556;9.370;2022-07-21T07:39:29;12.63;;;11.43;;
52540;SDS011;56003;48.556;9.370;2022-07-21T07:41:54;11.17;;;10.13;;
52540;SDS011;56003;48.556;9.370;2022-07-21T07:44:20;10.37;;;9.30;;
52540;SDS011;56003;48.556;9.370;2022-07-21T07:46:47;10.37;;;9.57;;
52540;SDS011;56003;48.556;9.370;2022-07-21T07:49:12;9.17;;;8.33;;
52540;SDS011;56003;48.556;9.370;2022-07-21T07:51:37;9.93;;;9.03;;
52540;SDS011;56003;48.556;9.370;2022-07-21T07:54:03;10.00;;;9.20;;
52540;SDS011;56003;48.556;9.370;2022-07-21T07:56:28;9.20;;;8.33;;
52540;SDS011;56003;48.556;9.370;2022-07-21T07:58:54;10.50;;;9.60;;
52540;SDS011;56003;48.556;9.370;2022-07-21T08:01:19;9.80;;;9.00;;
52540;SDS011;56003;48.556;9.370;2022-07-21T08:03:45;10.10;;;9.07;;
52540;SDS011;56003;48.556;9.370;2022-07-21T08:06:10;9.73;;;8.83;;
52540;SDS011;56003;48.556;9.370;2022-07-21T08:08:36;9.50;;;8.70;;
52540;SDS011;56003;48.556;9.370;2022-07-21T08:11:01;9.87;;;9.00;;
52540;SDS011;56003;48.556;9.370;2022-07-21T08:13:26;10.20;;;9.40;;
52540;SDS011;56003;48.556;9.370;2022-07-21T08:15:51;10.17;;;9.17;;
52540;SDS011;56003;48.556;9.370;2022-07-21T08:18:17;9.93;;;9.03;;
52540;SDS011;56003;48.556;9.370;2022-07-21T08:20:44;10.40;;;9.40;;
52540;SDS011;56003;48.556;9.370;2022-07-21T08:23:10;9.17;;;8.43;;
52540;SDS011;56003;48.556;9.370;2022-07-21T08:25:36;10.60;;;8.73;;
52540;SDS011;56003;48.556;9.370;2022-07-21T08:28:01;9.07;;;8.27;;
52540;SDS011;56003;48.556;9.370;2022-07-21T08:30:27;10.63;;;9.37;;
52540;SDS011;56003;48.556;9.370;2022-07-21T08:32:52;8.50;;;7.90;;
52540;SDS011;56003;48.556;9.370;2022-07-21T08:35:18;10.50;;;8.87;;
52540;SDS011;56003;48.556;9.370;2022-07-21T08:37:52;9.40;;;8.60;;
52540;SDS011;56003;48.556;9.370;2022-07-21T08:40:18;9.23;;;8.43;;
52540;SDS011;56003;48.556;9.370;2022-07-21T08:42:47;9.13;;;8.23;;
52540;SDS011;56003;48.556;9.370;2022-07-21T08:45:12;11.87;;;8.90;;
52540;SDS011;56003;48.556;9.370;2022-07-21T08:47:38;9.57;;;8.77;;
52540;SDS011;56003;48.556;9.370;2022-07-21T08:50:03;9.40;;;8.50;;
52540;SDS011;56003;48.556;9.370;2022-07-21T08:52:30;9.17;;;8.27;;
52540;SDS011;56003;48.556;9.370;2022-07-21T08:54:55;10.67;;;9.57;;
52540;SDS011;56003;48.556;9.370;2022-07-21T08:57:21;9.07;;;8.30;;
52540;SDS011;56003;48.556;9.370;2022-07-21T08:59:47;8.80;;;8.00;;
52540;SDS011;56003;48.556;9.370;2022-07-21T09:02:25;9.23;;;8.43;;
52540;SDS011;56003;48.556;9.370;2022-07-21T09:04:58;9.87;;;8.97;;
52540;SDS011;56003;48.556;9.370;2022-07-21T09:07:24;10.27;;;9.40;;
52540;SDS011;56003;48.556;9.370;2022-07-21T09:09:54;10.10;;;9.20;;
52540;SDS011;56003;48.556;9.370;2022-07-21T09:12:24;10.47;;;9.47;;
52540;SDS011;56003;48.556;9.370;2022-07-21T09:14:50;9.43;;;8.63;;
52540;SDS011;56003;48.556;9.370;2022-07-21T09:17:17;9.40;;;8.50;;
52540;SDS011;56003;48.556;9.370;2022-07-21T09:19:44;9.63;;;8.70;;
52540;SDS011;56003;48.556;9.370;2022-07-21T09:22:13;10.10;;;8.87;;
52540;SDS011;56003;48.556;9.370;2022-07-21T09:24:42;10.10;;;9.40;;
52540;SDS011;56003;48.556;9.370;2022-07-21T09:27:15;9.43;;;8.63;;
52540;SDS011;56003;48.556;9.370;2022-07-21T09:29:46;8.70;;;8.00;;
52540;SDS011;56003;48.556;9.370;2022-07-21T09:34:46;9.57;;;8.67;;
52540;SDS011;56003;48.556;9.370;2022-07-21T09:37:13;8.63;;;7.83;;
52540;SDS011;56003;48.556;9.370;2022-07-21T09:39:46;8.90;;;8.10;;
52540;SDS011;56003;48.556;9.370;2022-07-21T09:42:18;8.87;;;7.97;;
52540;SDS011;56003;48.556;9.370;2022-07-21T09:44:52;8.57;;;7.77;;
52540;SDS011;56003;48.556;9.370;2022-07-21T09:47:20;8.03;;;7.33;;
52540;SDS011;56003;48.556;9.370;2022-07-21T09:49:47;8.47;;;7.87;;
52540;SDS011;56003;48.556;9.370;2022-07-21T09:52:20;9.07;;;8.27;;
52540;SDS011;56003;48.556;9.370;2022-07-21T09:54:46;9.10;;;8.50;;
52540;SDS011;56003;48.556;9.370;2022-07-21T09:57:12;8.90;;;8.20;;
52540;SDS011;56003;48.556;9.370;2022-07-21T09:59:39;9.30;;;8.50;;
52540;SDS011;56003;48.556;9.370;2022-07-21T10:02:04;8.17;;;7.57;;
52540;SDS011;56003;48.556;9.370;2022-07-21T10:04:30;9.70;;;9.00;;
52540;SDS011;56003;48.556;9.370;2022-07-21T10:06:58;9.53;;;8.57;;
52540;SDS011;56003;48.556;9.370;2022-07-21T10:09:24;9.87;;;8.70;;
52540;SDS011;56003;48.556;9.370;2022-07-21T10:11:50;8.77;;;8.07;;
52540;SDS011;56003;48.556;9.370;2022-07-21T10:14:15;9.83;;;9.03;;
52540;SDS011;56003;48.556;9.370;2022-07-21T10:16:41;9.73;;;8.67;;
52540;SDS011;56003;48.556;9.370;2022-07-21T10:21:52;9.10;;;8.30;;
52540;SDS011;56003;48.556;9.370;2022-07-21T10:24:29;9.40;;;8.30;;
52540;SDS011;56003;48.556;9.370;2022-07-21T10:27:03;9.27;;;8.40;;
52540;SDS011;56003;48.556;9.370;2022-07-21T10:32:12;8.87;;;8.17;;
52540;SDS011;56003;48.556;9.370;2022-07-21T10:34:37;7.50;;;6.90;;
52540;SDS011;56003;48.556;9.370;2022-07-21T10:37:03;7.37;;;6.87;;
52540;SDS011;56003;48.556;9.370;2022-07-21T10:39:30;8.60;;;7.90;;
52540;SDS011;56003;48.556;9.370;2022-07-21T10:41:57;8.00;;;7.17;;
52540;SDS011;56003;48.556;9.370;2022-07-21T10:49:49;7.50;;;6.90;;
52540;SDS011;56003;48.556;9.370;2022-07-21T11:00:59;6.87;;;6.27;;
52540;SDS011;56003;48.556;9.370;2022-07-21T11:03:31;7.03;;;6.50;;
52540;SDS011;56003;48.556;9.370;2022-07-21T11:06:17;6.83;;;6.33;;
52540;SDS011;56003;48.556;9.370;2022-07-21T11:11:11;6.70;;;6.10;;
52540;SDS011;56003;48.556;9.370;2022-07-21T11:14:03;7.50;;;6.83;;
52540;SDS011;56003;48.556;9.370;2022-07-21T11:17:23;7.57;;;6.80;;
52540;SDS011;56003;48.556;9.370;2022-07-21T11:19:32;8.80;;;6.20;;
52540;SDS011;56003;48.556;9.370;2022-07-21T11:24:31;6.70;;;6.03;;
52540;SDS011;56003;48.556;9.370;2022-07-21T11:26:59;6.50;;;6.03;;
52540;SDS011;56003;48.556;9.370;2022-07-21T11:29:33;6.80;;;6.20;;
52540;SDS011;56003;48.556;9.370;2022-07-21T11:31:59;6.60;;;6.03;;
52540;SDS011;56003;48.556;9.370;2022-07-21T11:34:36;6.47;;;5.97;;
52540;SDS011;56003;48.556;9.370;2022-07-21T11:37:07;6.75;;;6.15;;
52540;SDS011;56003;48.556;9.370;2022-07-21T11:39:34;6.95;;;6.38;;
52540;SDS011;56003;48.556;9.370;2022-07-21T11:42:03;9.52;;;6.22;;
52540;SDS011;56003;48.556;9.370;2022-07-21T11:44:33;6.32;;;5.53;;
52540;SDS011;56003;48.556;9.370;2022-07-21T11:47:00;6.05;;;5.55;;
52540;SDS011;56003;48.556;9.370;2022-07-21T11:49:27;5.97;;;5.57;;
52540;SDS011;56003;48.556;9.370;2022-07-21T11:51:54;6.15;;;5.75;;
52540;SDS011;56003;48.556;9.370;2022-07-21T11:57:11;5.82;;;5.53;;
52540;SDS011;56003;48.556;9.370;2022-07-21T11:59:38;6.70;;;5.28;;
52540;SDS011;56003;48.556;9.370;2022-07-21T12:02:14;5.53;;;5.22;;
52540;SDS011;56003;48.556;9.370;2022-07-21T12:04:42;5.93;;;5.53;;
52540;SDS011;56003;48.556;9.370;2022-07-21T12:09:44;6.15;;;5.78;;
52540;SDS011;56003;48.556;9.370;2022-07-21T12:12:11;6.85;;;6.35;;
52540;SDS011;56003;48.556;9.370;2022-07-21T12:14:47;5.65;;;5.15;;
52540;SDS011;56003;48.556;9.370;2022-07-21T12:17:15;7.00;;;6.50;;
52540;SDS011;56003;48.556;9.370;2022-07-21T12:19:42;5.97;;;5.57;;
52540;SDS011;56003;48.556;9.370;2022-07-21T12:22:08;6.32;;;5.93;;
52540;SDS011;56003;48.556;9.370;2022-07-21T12:25:07;6.07;;;5.68;;
52540;SDS011;56003;48.556;9.370;2022-07-21T12:27:26;6.35;;;5.55;;
52540;SDS011;56003;48.556;9.370;2022-07-21T12:29:52;6.65;;;6.15;;
52540;SDS011;56003;48.556;9.370;2022-07-21T12:35:04;7.07;;;6.17;;
52540;SDS011;56003;48.556;9.370;2022-07-21T12:40:16;5.70;;;5.30;;
52540;SDS011;56003;48.556;9.370;2022-07-21T12:42:43;5.87;;;5.47;;
52540;SDS011;56003;48.556;9.370;2022-07-21T12:45:12;8.33;;;6.37;;
52540;SDS011;56003;48.556;9.370;2022-07-21T12:47:39;6.63;;;6.13;;
52540;SDS011;56003;48.556;9.370;2022-07-21T12:50:06;8.30;;;6.60;;
52540;SDS011;56003;48.556;9.370;2022-07-21T12:52:33;7.47;;;6.40;;
52540;SDS011;56003;48.556;9.370;2022-07-21T12:54:59;5.93;;;5.43;;
52540;SDS011;56003;48.556;9.370;2022-07-21T12:57:26;6.53;;;6.03;;
52540;SDS011;56003;48.556;9.370;2022-07-21T12:59:53;6.60;;;6.17;;
52540;SDS011;56003;48.556;9.370;2022-07-21T13:02:19;5.50;;;5.10;;
52540;SDS011;56003;48.556;9.370;2022-07-21T13:04:45;5.60;;;5.20;;
52540;SDS011;56003;48.556;9.370;2022-07-21T13:07:10;5.45;;;5.05;;
52540;SDS011;56003;48.556;9.370;2022-07-21T13:09:35;5.75;;;5.35;;
52540;SDS011;56003;48.556;9.370;2022-07-21T13:12:01;6.25;;;5.63;;
52540;SDS011;56003;48.556;9.370;2022-07-21T13:14:26;4.88;;;4.57;;
52540;SDS011;56003;48.556;9.370;2022-07-21T13:16:52;6.00;;;5.40;;
52540;SDS011;56003;48.556;9.370;2022-07-21T13:19:18;5.90;;;5.30;;
52540;SDS011;56003;48.556;9.370;2022-07-21T13:21:43;5.40;;;4.95;;
52540;SDS011;56003;48.556;9.370;2022-07-21T13:24:09;4.80;;;4.50;;
52540;SDS011;56003;48.556;9.370;2022-07-21T13:26:34;5.22;;;4.93;;
52540;SDS011;56003;48.556;9.370;2022-07-21T13:29:00;5.40;;;5.10;;
52540;SDS011;56003;48.556;9.370;2022-07-21T13:31:27;4.90;;;4.40;;
52540;SDS011;56003;48.556;9.370;2022-07-21T13:33:52;5.95;;;5.55;;
52540;SDS011;56003;48.556;9.370;2022-07-21T13:36:18;5.88;;;5.30;;
52540;SDS011;56003;48.556;9.370;2022-07-21T13:38:43;4.47;;;4.20;;
52540;SDS011;56003;48.556;9.370;2022-07-21T13:41:08;4.75;;;4.35;;
52540;SDS011;56003;48.556;9.370;2022-07-21T13:43:35;5.40;;;4.95;;
52540;SDS011;56003;48.556;9.370;2022-07-21T13:46:01;5.60;;;5.20;;
52540;SDS011;56003;48.556;9.370;2022-07-21T13:48:26;5.03;;;4.70;;
52540;SDS011;56003;48.556;9.370;2022-07-21T13:50:52;4.78;;;4.35;;
52540;SDS011;56003;48.556;9.370;2022-07-21T13:53:17;4.65;;;4.35;;
52540;SDS011;56003;48.556;9.370;2022-07-21T13:55:42;4.43;;;4.18;;
52540;SDS011;56003;48.556;9.370;2022-07-21T13:58:08;4.93;;;4.63;;
52540;SDS011;56003;48.556;9.370;2022-07-21T14:00:33;5.13;;;4.72;;
52540;SDS011;56003;48.556;9.370;2022-07-21T14:02:59;5.05;;;4.75;;
52540;SDS011;56003;48.556;9.370;2022-07-21T14:05:25;5.57;;;4.53;;
52540;SDS011;56003;48.556;9.370;2022-07-21T14:07:50;5.70;;;5.30;;
52540;SDS011;56003;48.556;9.370;2022-07-21T14:10:15;4.68;;;4.32;;
52540;SDS011;56003;48.556;9.370;2022-07-21T14:12:41;5.07;;;4.78;;
52540;SDS011;56003;48.556;9.370;2022-07-21T14:15:07;4.93;;;4.63;;
52540;SDS011;56003;48.556;9.370;2022-07-21T14:17:33;5.33;;;4.30;;
52540;SDS011;56003;48.556;9.370;2022-07-21T14:19:59;5.00;;;4.60;;
52540;SDS011;56003;48.556;9.370;2022-07-21T14:22:24;5.13;;;4.72;;
52540;SDS011;56003;48.556;9.370;2022-07-21T14:24:49;4.85;;;4.45;;
52540;SDS011;56003;48.556;9.370;2022-07-21T14:27:33;5.13;;;4.80;;
52540;SDS011;56003;48.556;9.370;2022-07-21T14:29:59;5.28;;;4.88;;
52540;SDS011;56003;48.556;9.370;2022-07-21T14:32:25;5.18;;;4.78;;
52540;SDS011;56003;48.556;9.370;2022-07-21T14:34:51;5.60;;;5.20;;
52540;SDS011;56003;48.556;9.370;2022-07-21T14:37:17;5.38;;;4.97;;
52540;SDS011;56003;48.556;9.370;2022-07-21T14:39:44;5.80;;;5.43;;
52540;SDS011;56003;48.556;9.370;2022-07-21T14:42:10;6.50;;;6.03;;
52540;SDS011;56003;48.556;9.370;2022-07-21T14:44:35;6.83;;;6.40;;
52540;SDS011;56003;48.556;9.370;2022-07-21T14:47:01;6.77;;;6.17;;
52540;SDS011;56003;48.556;9.370;2022-07-21T14:49:26;7.27;;;6.70;;
52540;SDS011;56003;48.556;9.370;2022-07-21T14:51:51;7.00;;;6.50;;
52540;SDS011;56003;48.556;9.370;2022-07-21T14:54:16;6.93;;;6.43;;
52540;SDS011;56003;48.556;9.370;2022-07-21T14:56:42;7.00;;;6.10;;
52540;SDS011;56003;48.556;9.370;2022-07-21T14:59:10;6.90;;;6.30;;
52540;SDS011;56003;48.556;9.370;2022-07-21T15:01:35;7.00;;;6.50;;
52540;SDS011;56003;48.556;9.370;2022-07-21T15:04:00;7.13;;;6.67;;
52540;SDS011;56003;48.556;9.370;2022-07-21T15:06:25;8.13;;;6.80;;
52540;SDS011;56003;48.556;9.370;2022-07-21T15:08:51;8.10;;;7.47;;